createdAt,value
2019-05-23T00:00:47.373Z,14.97
2019-05-23T00:03:18.626Z,16.13
2019-05-23T00:05:51.340Z,16.13
2019-05-23T00:08:24.220Z,16.77
2019-05-23T00:11:01.751Z,17.00
2019-05-23T00:13:49.388Z,17.47
2019-05-23T00:16:21.715Z,16.13
2019-05-23T00:18:51.842Z,16.37
2019-05-23T00:21:21.567Z,16.57
2019-05-23T00:23:51.748Z,15.93
2019-05-23T00:26:22.661Z,16.53
2019-05-23T00:29:09.083Z,16.33
2019-05-23T00:31:32.378Z,17.13
2019-05-23T00:34:01.648Z,17.03
2019-05-23T00:36:31.350Z,15.77
2019-05-23T00:39:00.749Z,16.77
2019-05-23T00:41:31.769Z,16.07
2019-05-23T00:44:01.662Z,14.97
2019-05-23T00:46:33.726Z,15.87
2019-05-23T00:49:02.869Z,16.03
2019-05-23T00:51:31.973Z,15.90
2019-05-23T00:54:02.404Z,15.90
2019-05-23T00:56:33.117Z,15.13
2019-05-23T00:59:02.275Z,15.67
2019-05-23T01:01:31.813Z,15.07
2019-05-23T01:04:01.253Z,15.60
2019-05-23T01:06:30.965Z,14.57
2019-05-23T01:09:00.106Z,15.87
2019-05-23T01:11:29.159Z,16.63
2019-05-23T01:13:59.218Z,16.33
2019-05-23T01:16:31.469Z,15.30
2019-05-23T01:19:01.282Z,16.10
2019-05-23T01:21:47.767Z,16.27
2019-05-23T01:24:30.651Z,15.27
2019-05-23T01:27:00.118Z,16.70
2019-05-23T01:29:37.836Z,16.27
2019-05-23T01:32:10.204Z,16.67
2019-05-23T01:34:40.008Z,15.77
2019-05-23T01:37:10.321Z,17.23
2019-05-23T01:39:39.180Z,15.80
2019-05-23T01:42:09.451Z,16.50
2019-05-23T01:44:38.445Z,16.63
2019-05-23T01:47:09.034Z,16.87
2019-05-23T01:49:38.067Z,17.03
2019-05-23T01:52:08.760Z,16.40
2019-05-23T01:54:37.883Z,17.73
2019-05-23T01:57:08.182Z,17.20
2019-05-23T01:59:37.398Z,17.67
2019-05-23T02:02:06.617Z,16.77
2019-05-23T02:04:35.930Z,18.00
2019-05-23T02:07:04.979Z,17.73
2019-05-23T02:09:35.546Z,18.50
2019-05-23T02:12:08.952Z,18.50
2019-05-23T02:14:40.638Z,17.90
2019-05-23T02:17:11.240Z,17.87
2019-05-23T02:19:41.019Z,19.40
2019-05-23T02:22:12.371Z,18.47
2019-05-23T02:24:42.358Z,19.17
2019-05-23T02:27:11.847Z,19.57
2019-05-23T02:29:41.969Z,18.60
2019-05-23T02:32:13.442Z,19.13
2019-05-23T02:34:44.028Z,18.63
2019-05-23T02:37:34.094Z,18.70
2019-05-23T02:40:14.355Z,17.67
2019-05-23T02:42:47.637Z,18.47
2019-05-23T02:45:23.658Z,19.97
2019-05-23T02:47:54.724Z,19.80
2019-05-23T02:50:29.486Z,20.30
2019-05-23T02:53:00.277Z,19.03
2019-05-23T02:55:34.355Z,20.77
2019-05-23T02:58:16.050Z,19.80
2019-05-23T03:01:00.209Z,19.97
2019-05-23T03:03:32.894Z,18.93
2019-05-23T03:06:04.537Z,19.43
2019-05-23T03:08:35.216Z,20.03
2019-05-23T03:11:19.063Z,21.07
2019-05-23T03:13:49.676Z,19.97
2019-05-23T03:16:22.008Z,19.13
2019-05-23T03:18:57.918Z,19.23
2019-05-23T03:21:27.137Z,19.90
2019-05-23T03:23:57.793Z,19.97
2019-05-23T03:27:15.518Z,18.90
2019-05-23T03:29:45.073Z,19.40
2019-05-23T03:32:38.722Z,18.60
2019-05-23T03:35:13.007Z,19.50
2019-05-23T03:37:42.707Z,19.13
2019-05-23T03:40:12.813Z,18.70
2019-05-23T03:42:42.257Z,18.43
2019-05-23T03:45:14.952Z,17.90
2019-05-23T03:47:46.101Z,19.07
2019-05-23T03:50:15.121Z,16.10
2019-05-23T03:52:44.285Z,16.50
2019-05-23T03:55:13.310Z,16.87
2019-05-23T03:57:42.252Z,17.20
2019-05-23T04:00:15.152Z,17.10
2019-05-23T04:02:44.200Z,16.67
2019-05-23T04:05:15.101Z,17.03
2019-05-23T04:07:44.521Z,16.33
2019-05-23T04:10:13.735Z,16.63
2019-05-23T04:12:43.245Z,15.30
2019-05-23T04:15:12.660Z,15.87
2019-05-23T04:17:42.574Z,14.87
2019-05-23T04:20:12.943Z,14.93
2019-05-23T04:22:42.267Z,15.27
2019-05-23T04:25:11.671Z,14.53
2019-05-23T04:27:40.900Z,15.23
2019-05-23T04:30:11.572Z,14.70
2019-05-23T04:32:41.064Z,14.30
2019-05-23T04:35:10.267Z,14.97
2019-05-23T04:37:41.364Z,15.00
2019-05-23T04:40:13.440Z,14.50
2019-05-23T04:42:42.543Z,13.57
2019-05-23T04:45:11.965Z,14.40
2019-05-23T04:47:41.711Z,13.90
2019-05-23T04:50:13.634Z,14.93
2019-05-23T04:52:42.903Z,12.97
2019-05-23T04:55:12.782Z,16.60
2019-05-23T04:57:42.071Z,13.27
2019-05-23T05:00:12.796Z,13.50
2019-05-23T05:02:43.344Z,13.23
2019-05-23T05:05:13.751Z,13.80
2019-05-23T05:07:43.242Z,13.63
2019-05-23T05:10:15.303Z,12.83
2019-05-23T05:12:44.805Z,11.93
2019-05-23T05:15:13.898Z,12.00
2019-05-23T05:17:43.203Z,12.40
2019-05-23T05:20:12.707Z,12.63
2019-05-23T05:22:44.304Z,12.93
2019-05-23T05:25:14.539Z,12.80
2019-05-23T05:27:47.240Z,13.03
2019-05-23T05:30:16.496Z,11.43
2019-05-23T05:32:45.872Z,13.50
2019-05-23T05:35:15.617Z,13.70
2019-05-23T05:37:44.659Z,13.23
2019-05-23T05:40:14.288Z,14.90
2019-05-23T05:42:43.968Z,16.93
2019-05-23T05:45:13.690Z,14.37
2019-05-23T05:47:42.826Z,15.43
2019-05-23T05:50:14.331Z,13.60
2019-05-23T05:52:43.787Z,12.97
2019-05-23T05:55:13.228Z,12.93
2019-05-23T05:57:44.290Z,14.10
2019-05-23T06:00:30.682Z,12.80
2019-05-23T06:03:05.052Z,13.10
2019-05-23T06:05:41.195Z,13.80
2019-05-23T06:08:10.620Z,13.17
2019-05-23T06:10:40.168Z,14.60
2019-05-23T06:13:09.640Z,14.17
2019-05-23T06:15:38.968Z,15.20
2019-05-23T06:18:08.797Z,13.17
2019-05-23T06:20:41.072Z,12.87
2019-05-23T06:23:11.856Z,13.80
2019-05-23T06:25:41.023Z,14.13
2019-05-23T06:28:10.692Z,12.90
2019-05-23T06:30:40.282Z,13.97
2019-05-23T06:33:22.513Z,16.03
2019-05-23T06:35:40.636Z,13.93
2019-05-23T06:38:10.532Z,12.27
2019-05-23T06:40:40.846Z,12.10
2019-05-23T06:43:10.053Z,12.50
2019-05-23T06:45:41.858Z,13.53
2019-05-23T06:48:13.286Z,12.80
2019-05-23T06:50:42.301Z,13.07
2019-05-23T06:53:11.494Z,13.80
2019-05-23T06:55:40.463Z,14.40
2019-05-23T06:58:09.537Z,12.93
2019-05-23T07:00:38.867Z,12.27
2019-05-23T07:03:07.984Z,14.87
2019-05-23T07:05:37.671Z,12.93
2019-05-23T07:08:07.631Z,12.50
2019-05-23T07:10:37.244Z,12.17
2019-05-23T07:13:06.228Z,11.60
2019-05-23T07:15:35.925Z,13.20
2019-05-23T07:18:06.010Z,12.17
2019-05-23T07:20:35.235Z,11.83
2019-05-23T07:23:05.010Z,12.17
2019-05-23T07:25:34.051Z,11.87
2019-05-23T07:28:03.019Z,12.93
2019-05-23T07:30:32.144Z,13.07
2019-05-23T07:33:01.340Z,12.23
2019-05-23T07:35:30.486Z,12.57
2019-05-23T07:37:59.538Z,14.13
2019-05-23T07:40:28.978Z,14.10
2019-05-23T07:42:58.795Z,13.00
2019-05-23T07:45:35.321Z,12.57
2019-05-23T07:48:04.500Z,12.30
2019-05-23T07:50:33.589Z,12.50
2019-05-23T07:53:04.029Z,12.73
2019-05-23T07:55:38.330Z,12.57
2019-05-23T07:58:07.424Z,12.63
2019-05-23T08:00:40.126Z,12.17
2019-05-23T08:03:09.368Z,11.50
2019-05-23T08:05:38.694Z,13.60
2019-05-23T08:08:08.041Z,12.43
2019-05-23T08:10:37.560Z,11.77
2019-05-23T08:13:08.755Z,12.33
2019-05-23T08:15:37.881Z,11.47
2019-05-23T08:18:07.094Z,11.03
2019-05-23T08:20:36.112Z,12.27
2019-05-23T08:23:05.147Z,15.00
2019-05-23T08:25:34.279Z,11.67
2019-05-23T08:28:04.944Z,12.13
2019-05-23T08:30:33.860Z,11.10
2019-05-23T08:33:03.361Z,12.15
2019-05-23T08:35:32.425Z,11.45
2019-05-23T08:38:01.421Z,12.53
2019-05-23T08:40:30.914Z,12.55
2019-05-23T08:43:01.055Z,12.13
2019-05-23T08:45:30.384Z,12.25
2019-05-23T08:47:59.666Z,13.10
2019-05-23T08:50:28.747Z,12.10
2019-05-23T08:52:57.864Z,12.90
2019-05-23T08:55:27.056Z,13.13
2019-05-23T08:57:56.494Z,13.25
2019-05-23T09:00:27.746Z,13.08
2019-05-23T09:02:58.619Z,12.82
2019-05-23T09:05:30.315Z,13.65
2019-05-23T09:07:59.896Z,12.80
2019-05-23T09:10:29.742Z,11.47
2019-05-23T09:12:59.432Z,12.87
2019-05-23T09:15:28.785Z,12.83
2019-05-23T09:17:58.195Z,13.37
2019-05-23T09:20:27.178Z,13.47
2019-05-23T09:22:56.564Z,14.73
2019-05-23T09:25:25.986Z,13.27
2019-05-23T09:27:56.363Z,13.37
2019-05-23T09:30:27.213Z,13.90
2019-05-23T09:32:56.531Z,13.73
2019-05-23T09:35:25.828Z,13.80
2019-05-23T09:37:54.951Z,14.67
2019-05-23T09:40:24.216Z,12.27
2019-05-23T09:42:53.481Z,11.50
2019-05-23T09:45:23.426Z,11.07
2019-05-23T09:47:52.511Z,10.63
2019-05-23T09:50:23.205Z,12.67
2019-05-23T09:52:52.707Z,12.47
2019-05-23T09:55:21.824Z,12.50
2019-05-23T09:57:50.818Z,12.73
2019-05-23T10:00:21.515Z,13.23
2019-05-23T10:02:50.887Z,12.13
2019-05-23T10:05:40.288Z,12.43
2019-05-23T10:07:51.103Z,12.07
2019-05-23T10:10:20.136Z,12.70
2019-05-23T10:12:49.131Z,12.17
2019-05-23T10:15:40.227Z,12.83
2019-05-23T10:18:11.864Z,11.57
2019-05-23T10:20:42.123Z,9.13
2019-05-23T10:23:11.449Z,9.13
2019-05-23T10:25:40.464Z,8.83
2019-05-23T10:28:10.071Z,10.27
2019-05-23T10:30:39.397Z,11.80
2019-05-23T10:33:12.061Z,11.17
2019-05-23T10:35:39.630Z,9.07
2019-05-23T10:38:08.953Z,9.83
2019-05-23T10:40:38.369Z,9.20
2019-05-23T10:43:07.937Z,8.90
2019-05-23T10:45:37.354Z,7.63
2019-05-23T10:48:06.976Z,8.97
2019-05-23T10:50:44.800Z,8.03
2019-05-23T10:53:07.303Z,10.23
2019-05-23T10:55:36.578Z,9.97
2019-05-23T10:58:05.874Z,9.23
2019-05-23T11:00:36.686Z,10.47
2019-05-23T11:03:06.791Z,10.07
2019-05-23T11:05:35.705Z,9.93
2019-05-23T11:08:06.503Z,5.97
2019-05-23T11:10:35.698Z,6.20
2019-05-23T11:13:04.981Z,4.90
2019-05-23T11:15:34.188Z,5.10
2019-05-23T11:18:03.288Z,7.33
2019-05-23T11:20:35.860Z,5.73
2019-05-23T11:23:03.809Z,4.80
2019-05-23T11:25:33.629Z,4.77
2019-05-23T11:28:02.682Z,5.20
2019-05-23T11:30:44.704Z,5.40
2019-05-23T11:33:15.222Z,4.40
2019-05-23T11:35:44.770Z,4.87
2019-05-23T11:38:14.346Z,4.40
2019-05-23T11:40:43.584Z,4.50
2019-05-23T11:43:12.752Z,4.50
2019-05-23T11:45:53.199Z,4.30
2019-05-23T11:48:22.504Z,4.57
2019-05-23T11:50:52.014Z,4.50
2019-05-23T11:53:21.287Z,4.40
2019-05-23T11:55:54.212Z,4.47
2019-05-23T11:58:21.114Z,3.80
2019-05-23T12:01:49.653Z,4.10
2019-05-23T12:04:20.622Z,3.77
2019-05-23T12:07:12.483Z,4.10
2019-05-23T12:09:41.576Z,4.27
2019-05-23T12:12:10.657Z,4.67
2019-05-23T12:14:39.963Z,3.83
2019-05-23T12:17:09.111Z,3.80
2019-05-23T12:19:38.079Z,3.60
2019-05-23T12:22:07.302Z,4.30
2019-05-23T12:24:36.270Z,4.40
2019-05-23T12:27:05.538Z,4.23
2019-05-23T12:29:35.526Z,3.63
2019-05-23T12:32:05.575Z,3.90
2019-05-23T12:34:34.723Z,3.80
2019-05-23T12:37:18.624Z,3.40
2019-05-23T12:39:34.444Z,3.60
2019-05-23T12:42:03.551Z,3.97
2019-05-23T12:44:32.746Z,3.80
2019-05-23T12:47:02.717Z,7.03
2019-05-23T12:49:36.530Z,2.83
2019-05-23T12:52:07.319Z,3.00
2019-05-23T12:54:36.888Z,2.57
2019-05-23T12:57:07.529Z,2.87
2019-05-23T12:59:36.442Z,3.07
2019-05-23T13:02:08.541Z,2.87
2019-05-23T13:04:38.299Z,2.77
2019-05-23T13:07:07.343Z,3.07
2019-05-23T13:09:36.722Z,2.60
2019-05-23T13:12:05.984Z,3.23
2019-05-23T13:14:36.375Z,3.17
2019-05-23T13:17:05.554Z,3.03
2019-05-23T13:19:34.659Z,2.90
2019-05-23T13:22:05.694Z,4.97
2019-05-23T13:24:51.296Z,3.50
2019-05-23T13:27:05.647Z,4.27
2019-05-23T13:29:35.134Z,3.10
2019-05-23T13:32:05.252Z,3.07
2019-05-23T13:34:34.858Z,2.70
2019-05-23T13:37:05.884Z,2.40
2019-05-23T13:39:35.459Z,2.70
2019-05-23T13:42:04.552Z,2.50
2019-05-23T13:44:35.875Z,2.20
2019-05-23T13:47:04.349Z,2.43
2019-05-23T13:49:33.742Z,2.60
2019-05-23T13:52:02.870Z,3.40
2019-05-23T13:54:36.150Z,3.20
2019-05-23T13:57:04.266Z,2.23
2019-05-23T13:59:34.024Z,2.60
2019-05-23T14:02:03.622Z,3.30
2019-05-23T14:04:32.840Z,2.70
2019-05-23T14:07:02.272Z,3.20
2019-05-23T14:09:32.919Z,2.40
2019-05-23T14:12:27.106Z,2.80
2019-05-23T14:14:33.319Z,2.80
2019-05-23T14:17:17.837Z,3.03
2019-05-23T14:19:47.427Z,3.30
2019-05-23T14:22:17.170Z,3.20
2019-05-23T14:24:46.256Z,2.70
2019-05-23T14:27:34.404Z,2.83
2019-05-23T14:30:10.717Z,2.70
2019-05-23T14:32:45.663Z,3.30
2019-05-23T14:35:17.841Z,2.63
2019-05-23T14:37:49.095Z,2.50
2019-05-23T14:40:36.944Z,3.70
2019-05-23T14:43:12.219Z,2.40
2019-05-23T14:45:47.359Z,4.33
2019-05-23T14:48:29.746Z,2.77
2019-05-23T14:51:12.829Z,2.83
2019-05-23T14:53:43.869Z,2.00
2019-05-23T14:56:14.236Z,2.50
2019-05-23T14:58:43.191Z,2.33
2019-05-23T15:01:12.827Z,2.60
2019-05-23T15:03:42.033Z,2.80
2019-05-23T15:06:11.578Z,3.20
2019-05-23T15:08:50.857Z,2.40
2019-05-23T15:11:12.153Z,2.93
2019-05-23T15:13:41.437Z,2.37
2019-05-23T15:16:10.966Z,2.47
2019-05-23T15:18:40.325Z,3.00
2019-05-23T15:21:09.322Z,2.40
2019-05-23T15:23:38.534Z,2.57
2019-05-23T15:26:21.621Z,2.40
2019-05-23T15:28:38.277Z,2.30
2019-05-23T15:31:07.661Z,2.50
2019-05-23T15:33:37.238Z,1.97
2019-05-23T15:36:06.521Z,2.50
2019-05-23T15:38:35.945Z,2.40
2019-05-23T15:41:05.390Z,2.40
2019-05-23T15:43:34.655Z,2.40
2019-05-23T15:46:03.953Z,2.73
2019-05-23T15:48:33.185Z,2.30
2019-05-23T15:51:02.675Z,2.43
2019-05-23T15:53:59.842Z,2.40
2019-05-23T15:56:39.609Z,2.97
2019-05-23T15:59:40.529Z,3.03
2019-05-23T16:02:16.165Z,2.40
2019-05-23T16:04:45.306Z,2.30
2019-05-23T16:07:14.888Z,2.50
2019-05-23T16:09:44.131Z,2.20
2019-05-23T16:12:14.475Z,7.87
2019-05-23T16:14:44.408Z,15.90
2019-05-23T16:17:13.762Z,3.07
2019-05-23T16:19:43.610Z,2.60
2019-05-23T16:22:12.822Z,2.70
2019-05-23T16:24:42.118Z,2.30
2019-05-23T16:27:11.837Z,2.50
2019-05-23T16:29:41.320Z,2.20
2019-05-23T16:32:10.621Z,2.27
2019-05-23T16:34:42.610Z,2.50
2019-05-23T16:37:14.641Z,2.73
2019-05-23T16:39:47.944Z,2.50
2019-05-23T16:42:15.191Z,1.93
2019-05-23T16:44:47.481Z,1.93
2019-05-23T16:47:17.460Z,3.23
2019-05-23T16:49:49.455Z,2.03
2019-05-23T16:52:19.772Z,1.80
2019-05-23T16:54:51.308Z,2.20
2019-05-23T16:57:45.574Z,2.10
2019-05-23T17:00:34.869Z,2.10
2019-05-23T17:03:36.118Z,2.10
2019-05-23T17:06:21.660Z,2.40
2019-05-23T17:09:17.650Z,2.27
2019-05-23T17:12:07.868Z,2.00
2019-05-23T17:14:57.166Z,2.23
2019-05-23T17:18:02.964Z,2.17
2019-05-23T17:20:55.814Z,2.20
2019-05-23T17:23:49.988Z,2.03
2019-05-23T17:26:31.862Z,1.77
2019-05-23T17:29:02.645Z,1.50
2019-05-23T17:31:35.236Z,1.80
2019-05-23T17:34:04.373Z,1.80
2019-05-23T17:36:33.870Z,1.67
2019-05-23T17:39:33.215Z,1.90
2019-05-23T17:41:41.452Z,1.70
2019-05-23T17:44:10.521Z,1.97
2019-05-23T17:46:42.053Z,1.80
2019-05-23T17:49:11.815Z,1.73
2019-05-23T17:51:41.410Z,2.00
2019-05-23T17:54:10.951Z,1.60
2019-05-23T17:56:40.574Z,1.60
2019-05-23T17:59:10.385Z,1.50
2019-05-23T18:01:40.203Z,2.47
2019-05-23T18:04:09.576Z,2.43
2019-05-23T18:06:38.514Z,3.27
2019-05-23T18:09:09.598Z,2.00
2019-05-23T18:11:38.584Z,1.90
2019-05-23T18:14:09.484Z,1.97
2019-05-23T18:16:40.743Z,1.87
2019-05-23T18:19:12.651Z,1.90
2019-05-23T18:21:43.346Z,1.80
2019-05-23T18:24:13.315Z,1.97
2019-05-23T18:26:45.695Z,1.83
2019-05-23T18:29:14.669Z,2.00
2019-05-23T18:31:45.633Z,1.80
2019-05-23T18:34:28.171Z,1.90
2019-05-23T18:36:57.710Z,1.80
2019-05-23T18:39:28.502Z,2.37
2019-05-23T18:41:57.825Z,2.10
2019-05-23T18:44:27.530Z,2.83
2019-05-23T18:47:01.838Z,1.90
2019-05-23T18:49:33.596Z,1.90
2019-05-23T18:52:03.986Z,1.90
2019-05-23T18:54:33.294Z,1.80
2019-05-23T18:57:02.573Z,2.13
2019-05-23T18:59:32.181Z,1.77
2019-05-23T19:02:01.869Z,2.00
2019-05-23T19:04:33.579Z,2.10
2019-05-23T19:07:05.833Z,1.70
2019-05-23T19:09:34.841Z,1.83
2019-05-23T19:12:07.268Z,1.77
2019-05-23T19:14:36.698Z,2.20
2019-05-23T19:17:09.470Z,1.97
2019-05-23T19:19:40.484Z,2.70
2019-05-23T19:22:10.631Z,3.03
2019-05-23T19:24:40.003Z,3.07
2019-05-23T19:27:14.131Z,2.73
2019-05-23T19:29:42.739Z,2.47
2019-05-23T19:32:14.278Z,2.30
2019-05-23T19:34:44.884Z,3.13
2019-05-23T19:37:15.773Z,2.40
2019-05-23T19:39:48.493Z,3.20
2019-05-23T19:42:18.483Z,2.67
2019-05-23T19:44:47.452Z,2.30
2019-05-23T19:47:16.466Z,2.40
2019-05-23T19:49:45.654Z,2.63
2019-05-23T19:52:14.654Z,2.67
2019-05-23T19:54:43.666Z,2.90
2019-05-23T19:57:12.747Z,3.20
2019-05-23T19:59:42.034Z,3.20
2019-05-23T20:02:28.845Z,2.93
2019-05-23T20:05:16.858Z,2.60
2019-05-23T20:07:46.808Z,2.63
2019-05-23T20:10:17.568Z,2.47
2019-05-23T20:12:48.663Z,2.93
2019-05-23T20:15:17.809Z,2.70
2019-05-23T20:17:51.083Z,3.20
2019-05-23T20:20:17.651Z,2.60
2019-05-23T20:22:46.683Z,3.30
2019-05-23T20:25:16.188Z,2.77
2019-05-23T20:27:45.195Z,2.93
2019-05-23T20:30:37.315Z,2.63
2019-05-23T20:33:06.378Z,2.23
2019-05-23T20:35:35.883Z,2.73
2019-05-23T20:38:05.097Z,2.90
2019-05-23T20:40:34.144Z,2.70
2019-05-23T20:43:03.246Z,2.47
2019-05-23T20:45:32.388Z,2.93
2019-05-23T20:48:01.582Z,3.30
2019-05-23T20:50:30.809Z,3.07
2019-05-23T20:52:59.693Z,6.20
2019-05-23T20:55:28.795Z,9.40
2019-05-23T20:57:57.792Z,7.40
2019-05-23T21:00:38.942Z,4.20
2019-05-23T21:03:08.223Z,5.10
2019-05-23T21:05:37.675Z,5.90
2019-05-23T21:08:06.979Z,3.67
2019-05-23T21:10:48.404Z,4.23
2019-05-23T21:13:17.993Z,3.70
2019-05-23T21:15:47.837Z,5.03
2019-05-23T21:18:16.922Z,4.20
2019-05-23T21:20:46.199Z,5.60
2019-05-23T21:23:15.428Z,3.80
2019-05-23T21:25:55.578Z,3.80
2019-05-23T21:28:25.168Z,3.70
2019-05-23T21:30:54.222Z,3.27
2019-05-23T21:33:23.658Z,3.67
2019-05-23T21:35:52.703Z,4.20
2019-05-23T21:38:21.774Z,11.67
2019-05-23T21:40:50.895Z,5.53
2019-05-23T21:43:19.921Z,4.60
2019-05-23T21:45:49.923Z,4.20
2019-05-23T21:48:18.901Z,4.70
2019-05-23T21:50:47.922Z,4.40
2019-05-23T21:53:19.329Z,4.27
2019-05-23T21:55:48.324Z,3.97
2019-05-23T21:58:17.388Z,3.93
2019-05-23T22:01:36.505Z,4.03
2019-05-23T22:04:25.149Z,4.70
2019-05-23T22:07:00.715Z,4.30
2019-05-23T22:09:30.976Z,4.07
2019-05-23T22:12:00.767Z,5.57
2019-05-23T22:14:29.859Z,3.87
2019-05-23T22:16:58.930Z,4.77
2019-05-23T22:19:29.008Z,4.30
2019-05-23T22:21:58.507Z,4.67
2019-05-23T22:31:56.736Z,4.50
2019-05-23T22:34:43.854Z,5.07
2019-05-23T22:37:19.357Z,4.27
2019-05-23T22:39:48.491Z,5.37
2019-05-23T22:42:18.779Z,5.00
2019-05-23T22:44:47.702Z,4.20
2019-05-23T22:47:17.329Z,4.13
2019-05-23T22:49:46.366Z,4.77
2019-05-23T22:52:15.340Z,4.70
2019-05-23T22:54:44.243Z,4.70
2019-05-23T22:57:13.415Z,4.33
2019-05-23T22:59:42.522Z,4.00
2019-05-23T23:02:15.071Z,4.80
2019-05-23T23:04:44.295Z,4.07
2019-05-23T23:07:13.547Z,4.00
2019-05-23T23:09:42.590Z,3.77
2019-05-23T23:12:11.536Z,4.57
2019-05-23T23:14:40.459Z,4.30
2019-05-23T23:17:09.650Z,4.90
2019-05-23T23:19:38.955Z,3.90
2019-05-23T23:22:10.122Z,4.17
2019-05-23T23:24:38.939Z,4.33
2019-05-23T23:27:07.937Z,4.40
2019-05-23T23:29:37.278Z,3.90
2019-05-23T23:32:06.282Z,4.40
2019-05-23T23:34:35.278Z,6.17
2019-05-23T23:37:04.297Z,9.80
2019-05-23T23:39:33.281Z,4.90
2019-05-23T23:42:02.217Z,4.80
2019-05-23T23:44:36.379Z,4.93
2019-05-23T23:47:24.266Z,4.43
2019-05-23T23:50:11.666Z,10.30
2019-05-23T23:52:58.376Z,4.93
2019-05-23T23:55:45.320Z,5.00
2019-05-23T23:58:13.376Z,4.70
